DONNÉES MÉTÉO

HIER
Time Temp. Dewp. Hum. Directi La vitess Wind gust Bar. 1h Prec. 24h Prec.
00:05 18.2 13.3 73 236 2.8 5.8 1011.4 0.0000 0.0000
00:15 18.1 13.2 73 265 1.9 4.4 1011.4 0.0000 0.0000
00:25 18.1 13.2 73 246 1.9 4.4 1011.4 0.0000 0.0000
00:35 18 13.1 73 246 2.2 6.4 1011.5 0.0000 0.0000
00:45 17.9 13 73 270 1.4 3.9 1011.5 0.0000 0.0000
00:56 17.8 12.7 72 252 1.9 4.2 1011.5 0.0000 0.0000
01:06 17.7 12.6 72 250 1.4 3.1 1011.5 0.0000 0.0000
01:16 17.6 12.5 72 253 1.4 5 1011.5 0.0000 0.0000
01:25 17.5 12.4 72 238 1.4 4.2 1011.5 0.0000 0.0000
01:36 17.4 12.5 73 253 1.4 3.3 1011.5 0.0000 0.0000
01:46 17.3 12.4 73 270 1.1 2.8 1011.6 0.0000 0.0000
01:56 17.2 12.3 73 249 1.1 2.8 1011.6 0.0000 0.0000
02:06 17.1 12.2 73 245 1.9 5.3 1011.6 0.0000 0.0000
02:16 17.1 12.2 73 242 1.4 3.9 1011.6 0.0000 0.0000
02:26 17.1 12.4 74 258 1.9 4.2 1011.5 0.0000 0.0000
02:36 17.1 12.4 74 241 2.2 5 1011.4 0.0000 0.0000
02:47 17.1 12.4 74 270 2.8 5.3 1011.4 0.0000 0.0000
02:56 17.1 12.4 74 275 1.9 3.9 1011.4 0.0000 0.0000
03:06 17 12.1 73 270 1.9 4.2 1011.4 0.0000 0.0000
03:17 16.9 12 73 276 1.9 4.2 1011.4 0.0000 0.0000
03:27 16.8 11.9 73 270 1.9 4.4 1011.4 0.0000 0.0000
03:37 16.8 11.9 73 270 1.4 3.3 1011.3 0.0000 0.0000
03:46 16.7 11.8 73 277 1.4 3.9 1011.3 0.0000 0.0000
03:57 16.6 11.7 73 282 1.4 3.3 1011.3 0.0000 0.0000
04:07 16.6 11.7 73 280 1.4 3.3 1011.2 0.0000 0.0000
04:17 16.5 11.6 73 270 1.4 3.1 1011.1 0.0000 0.0000
04:27 16.4 11.8 74 270 1.4 3.9 1011.2 0.0000 0.0000
04:38 16.4 11.6 73 270 1.9 5.3 1011.2 0.0000 0.0000
04:47 16.3 11.7 74 270 1.9 3.9 1011.2 0.0000 0.0000
04:57 16.3 11.7 74 270 2.2 5.3 1011.3 0.0000 0.0000
05:08 16.2 11.4 73 246 2.2 5.3 1011.3 0.0000 0.0000
05:18 16.2 11.6 74 270 2.2 4.2 1011.3 0.0000 0.0000
05:28 16.1 11.5 74 270 1.9 4.2 1011.3 0.0000 0.0000
05:38 16.1 11.5 74 277 1.9 4.4 1011.3 0.0000 0.0000
05:48 16.1 11.5 74 270 1.4 3.3 1011.4 0.0000 0.0000
05:58 16 11.4 74 280 1.9 3.9 1011.4 0.0000 0.0000
06:08 16 11.4 74 275 1.9 4.4 1011.5 0.0000 0.0000
06:19 16.1 11.5 74 274 2.2 4.2 1011.4 0.0000 0.0000
06:28 16 11.2 73 277 1.4 3.1 1011.4 0.0000 0.0000
06:38 16 11.2 73 270 1.4 3.9 1011.4 0.0000 0.0000
06:48 16.1 11.3 73 270 1.4 3.9 1011.4 0.0000 0.0000
06:59 16.1 11.3 73 270 1.4 3.3 1011.5 0.0000 0.0000
07:09 16.1 11.5 74 270 1.4 3.9 1011.4 0.0000 0.0000
07:18 16.2 11.4 73 270 1.9 4.4 1011.5 0.0000 0.0000
07:29 16.2 11.6 74 265 1.9 4.4 1011.4 0.0000 0.0000
07:39 16.3 11.7 74 237 2.2 6.4 1011.5 0.0000 0.0000
07:49 16.4 11.8 74 251 2.2 5.3 1011.5 0.0000 0.0000
07:59 16.6 11.7 73 270 2.2 5 1011.4 0.0000 0.0000
08:09 16.7 12 74 256 2.2 5.8 1011.5 0.0000 0.0000
08:19 16.9 12 73 236 2.2 5 1011.5 0.0000 0.0000
08:29 17 12.3 74 255 2.2 4.4 1011.6 0.0000 0.0000
08:40 17.1 12.2 73 249 2.2 5.8 1011.6 0.0000 0.0000
08:50 17.2 12.3 73 259 2.8 6.4 1011.6 0.0000 0.0000
08:59 17.4 12.5 73 262 1.9 6.1 1011.6 0.0000 0.0000
09:09 17.6 12.7 73 257 1.9 4.4 1011.7 0.0000 0.0000
09:20 17.8 12.9 73 239 2.8 5.3 1011.7 0.0000 0.0000
09:30 18.1 13 72 236 2.8 5.3 1011.6 0.0000 0.0000
09:40 18.1 13 72 270 2.2 5 1011.7 0.0000 0.0000
09:50 18.2 13.5 74 254 1.9 5 1011.6 0.0000 0.0000
10:00 18.4 13.1 71 279 3.9 6.1 1011.7 0.0000 0.0000
10:14 18.4 12.8 70 276 2.8 5.8 1011.8 0.0000 0.0000
10:24 18.5 12.9 70 270 2.2 5 1011.9 0.0000 0.0000
10:34 18.9 13.5 71 262 2.2 7.2 1012 0.0000 0.0000
10:44 19.2 13.8 71 252 2.2 5 1012 0.0000 0.0000
10:55 19.4 13.3 68 273 2.8 6.4 1012.2 0.0000 0.0000
11:14 19.9 13.8 68 263 2.8 5.8 1012.1 0.0000 0.0000
11:24 20 13.5 66 286 4.2 6.9 1012.2 0.0000 0.0000
11:35 19.9 13.4 66 279 3.3 6.1 1012.3 0.0000 0.0000
11:45 19.9 13.1 65 287 4.2 6.9 1012.3 0.0000 0.0000
11:54 20 13.5 66 263 1.9 5.3 1012.3 0.0000 0.0000
12:15 20 13.2 65 282 3.9 6.4 1012.3 0.0000 0.0000
12:25 20 13 64 292 3.1 5.3 1012.3 0.0000 0.0000
12:35 20 12.7 63 288 3.3 6.1 1012.4 0.0000 0.0000
12:45 20 13 64 270 3.3 7.5 1012.4 0.0000 0.0000
12:55 20.1 12.8 63 273 3.3 6.9 1012.4 0.0000 0.0000
13:05 20.1 12.8 63 266 3.1 5.8 1012.5 0.0000 0.0000
13:16 20.2 12.9 63 278 3.3 7.2 1012.6 0.0000 0.0000
13:26 20.3 13 63 251 2.8 6.9 1012.6 0.0000 0.0000
13:35 20.3 12.5 61 273 3.9 6.4 1012.6 0.0000 0.0000
13:45 20.3 12.5 61 287 2.8 5.3 1012.6 0.0000 0.0000
13:56 20.2 12.4 61 281 3.3 7.5 1012.6 0.0000 0.0000
14:06 20.1 12.4 61 275 3.3 6.9 1012.5 0.0000 0.0000
14:16 20.2 12.7 62 258 2.8 5.3 1012.4 0.0000 0.0000
14:26 20.1 12.4 61 284 3.1 6.4 1012.4 0.0000 0.0000
14:36 20.1 12.4 61 296 3.9 6.9 1012.4 0.0000 0.0000
14:46 20 12 60 286 3.9 6.9 1012.4 0.0000 0.0000
14:56 20 12.7 63 280 2.2 5.8 1012.4 0.0000 0.0000
15:06 20 12.5 62 265 2.8 5 1012.4 0.0000 0.0000
15:16 20 12.5 62 288 3.3 6.4 1012.4 0.0000 0.0000
15:26 20 12.3 61 277 3.1 6.1 1012.4 0.0000 0.0000
15:37 19.9 12.2 61 283 3.3 6.1 1012.4 0.0000 0.0000
15:47 19.9 11.9 60 285 3.9 6.9 1012.4 0.0000 0.0000
15:57 19.9 12.2 61 277 2.8 6.1 1012.4 0.0000 0.0000
16:06 19.8 12.1 61 286 3.1 5.3 1012.2 0.0000 0.0000
16:17 19.8 12.3 62 299 2.8 5.3 1012.2 0.0000 0.0000
16:27 19.7 12 61 283 3.3 6.1 1012.2 0.0000 0.0000
16:37 19.7 12 61 291 3.1 5.8 1012.2 0.0000 0.0000
16:47 19.6 11.6 60 286 3.9 8.1 1012.2 0.0000 0.0000
16:57 19.6 11.9 61 276 3.1 5.8 1012.3 0.0000 0.0000
17:07 19.5 11.5 60 293 3.3 7.2 1012.3 0.0000 0.0000
17:17 19.4 11.7 61 286 3.1 5.8 1012.3 0.0000 0.0000
17:28 19.3 11.8 62 291 1.9 4.2 1012.3 0.0000 0.0000
17:38 19.3 11.6 61 275 3.3 6.9 1012.3 0.0000 0.0000
17:47 19.2 11.5 61 280 3.1 7.2 1012.3 0.0000 0.0000
17:57 19.1 11.7 62 273 3.3 6.4 1012.3 0.0000 0.0000
18:08 19.1 11.7 62 277 3.1 7.2 1012.4 0.0000 0.0000
18:18 19 11.6 62 286 3.1 6.4 1012.4 0.0000 0.0000
18:28 18.9 11.5 62 291 3.1 6.1 1012.3 0.0000 0.0000
18:38 18.8 11.6 63 273 2.8 6.4 1012.4 0.0000 0.0000
18:48 18.8 11.6 63 274 3.1 6.1 1012.5 0.0000 0.0000
18:58 18.7 11.5 63 275 3.1 6.1 1012.4 0.0000 0.0000
19:08 18.5 11.3 63 285 3.3 6.4 1012.5 0.0000 0.0000
19:19 18.5 11.6 64 285 2.8 5.3 1012.5 0.0000 0.0000
19:29 18.4 11.5 64 270 2.8 5.8 1012.5 0.0000 0.0000
19:38 18.3 11.4 64 285 2.8 4.2 1012.5 0.0000 0.0000
19:49 18.3 11.4 64 279 3.1 6.9 1012.5 0.0000 0.0000
19:59 18.2 11.5 65 270 2.2 4.4 1012.5 0.0000 0.0000
20:09 18.2 11.5 65 253 1.9 4.2 1012.5 0.0000 0.0000
20:19 18 11.6 66 276 1.9 5.8 1012.6 0.0000 0.0000
20:29 18 11.6 66 287 1.9 3.9 1012.7 0.0000 0.0000
20:39 17.9 11.5 66 286 2.8 3.9 1012.6 0.0000 0.0000
20:49 17.8 11.4 66 285 1.4 3.3 1012.6 0.0000 0.0000
20:59 17.7 11.5 67 283 1.4 3.3 1012.7 0.0000 0.0000
21:10 17.6 11.4 67 289 1.4 3.1 1012.7 0.0000 0.0000
21:19 17.5 11.3 67 270 0.8 2.8 1012.6 0.0000 0.0000
21:29 17.4 11 66 270 0.8 1.9 1012.7 0.0000 0.0000
21:40 17.3 11.1 67 270 0.8 1.9 1012.8 0.0000 0.0000
21:50 17.2 11 67 284 1.1 2.2 1012.8 0.0000 0.0000
22:00 17.1 10.9 67 289 1.1 2.8 1012.9 0.0000 0.0000
22:10 17 10.8 67 286 1.4 3.3 1012.8 0.0000 0.0000
22:20 16.9 11 68 285 1.1 2.2 1012.7 0.0000 0.0000
22:30 16.9 11 68 285 1.1 2.8 1012.8 0.0000 0.0000
22:40 16.8 10.9 68 278 1.1 1.9 1012.7 0.0000 0.0000
22:51 16.7 11 69 283 1.1 2.2 1012.8 0.0000 0.0000
23:01 16.7 11 69 287 1.4 2.8 1012.8 0.0000 0.0000
23:10 16.6 10.9 69 282 1.1 2.8 1012.8 0.0000 0.0000
23:20 16.5 11 70 285 1.4 2.8 1012.8 0.0000 0.0000
23:31 16.4 10.9 70 289 1.1 2.2 1012.8 0.0000 0.0000
23:41 16.3 10.8 70 278 1.4 3.1 1012.7 0.0000 0.0000
23:51 16.2 10.7 70 294 0.8 1.9 1012.8 0.0000 0.0000

SATISTIQUES DU JOUR

2020-08-03
TEMPÉRATURE
MOYEN
18.0
MAXI
20.3
13:26
MINI
16.0
05:58
PRESSION
MOYEN
1012.0
MAXI
1012.9
22:00
MINI
1011.1
04:17
POINT DE ROSÉE
MOYEN
12.0
MAXI
13.8
10:44
MINI
10.7
23:51
HUMIDITÉ
MOYEN
68
MAXI
74
02:26
MINI
60
14:46
LA VITESSE DU VENT
MOYEN
2.3
MAXI
4.2
11:24
WIND GUST
MOYEN
4.9
MAXI
8.1
16:47
DIRECTION DU VENT
PREVAILING
W
88.6%
N
0.0
NE
0.0
E
0.0
SE
0.0
S
0.0
SW
8.6
W
88.6
NW
2.9
PRÉCIPITATIONS
RAIN HOUR
0.0
RAIN DAY
0.0
TEMPÉRATURE (°C)
MINI
16.0
MAXI
20.3
MOYEN
18.0
PRESSION (hpa)
MINI
1011.1
MAXI
1012.9
MOYEN
1012.0
DEVICE